Bryantville, Massachusetts
Current Conditions -  °F | °C
As of 3:30 PM on Thursday 23 Oct 2014 (Local Time) from KGHG Reporting Station
Haze Haze  
Wind Chill: 57°   Ceiling: 300
Heat Index: 57°   Visibility: 2.5mi
Dew Point: 57°   Wind: 14mph
Humidity: 100%   Direction: 20°NNE
Pressure: 29.55"   Gusts: 29mph
Location:  42.04°N, 70.84°W
Report Text: KGHG 231930Z AUTO 02012G25KT 020V360 2 1/2SM BR OVC003 14/14 A2955 RMK AO2
Loading
Personal Weather Stations






























Interactive Weather Map New forecast layout! Learn more

10-Day Weather Forecast

Advertisements
Track Severe Weather on mobile